sensor_id;sensor_type;location;lat;lon;timestamp;temperature;humidity
10046;DHT22;5063;50.878;4.742;2023-08-20T00:01:57;19.10;99.90
10046;DHT22;5063;50.878;4.742;2023-08-20T00:04:25;19.10;99.90
10046;DHT22;5063;50.878;4.742;2023-08-20T00:06:52;19.10;99.90
10046;DHT22;5063;50.878;4.742;2023-08-20T00:09:18;19.10;99.90
10046;DHT22;5063;50.878;4.742;2023-08-20T00:11:43;19.10;99.90
10046;DHT22;5063;50.878;4.742;2023-08-20T00:14:16;19.10;99.90
10046;DHT22;5063;50.878;4.742;2023-08-20T00:16:43;19.00;99.90
10046;DHT22;5063;50.878;4.742;2023-08-20T00:19:09;19.00;99.90
10046;DHT22;5063;50.878;4.742;2023-08-20T00:21:41;19.00;99.90
10046;DHT22;5063;50.878;4.742;2023-08-20T00:24:07;19.00;99.90
10046;DHT22;5063;50.878;4.742;2023-08-20T00:26:33;19.00;99.90
10046;DHT22;5063;50.878;4.742;2023-08-20T00:28:59;19.00;99.90
10046;DHT22;5063;50.878;4.742;2023-08-20T00:31:25;19.10;99.90
10046;DHT22;5063;50.878;4.742;2023-08-20T00:33:50;18.90;99.90
10046;DHT22;5063;50.878;4.742;2023-08-20T00:36:16;19.10;99.90
10046;DHT22;5063;50.878;4.742;2023-08-20T00:38:42;19.10;99.90
10046;DHT22;5063;50.878;4.742;2023-08-20T00:41:07;19.00;99.90
10046;DHT22;5063;50.878;4.742;2023-08-20T00:43:33;19.00;99.90
10046;DHT22;5063;50.878;4.742;2023-08-20T00:45:59;18.90;99.90
10046;DHT22;5063;50.878;4.742;2023-08-20T00:48:25;18.90;99.90
10046;DHT22;5063;50.878;4.742;2023-08-20T00:50:51;18.80;99.90
10046;DHT22;5063;50.878;4.742;2023-08-20T00:53:17;18.70;99.90
10046;DHT22;5063;50.878;4.742;2023-08-20T00:55:43;18.70;99.90
10046;DHT22;5063;50.878;4.742;2023-08-20T00:58:10;18.60;99.90
10046;DHT22;5063;50.878;4.742;2023-08-20T01:00:36;18.50;99.90
10046;DHT22;5063;50.878;4.742;2023-08-20T01:03:01;18.40;99.90
10046;DHT22;5063;50.878;4.742;2023-08-20T01:05:31;18.30;99.90
10046;DHT22;5063;50.878;4.742;2023-08-20T01:12:55;18.10;99.90
10046;DHT22;5063;50.878;4.742;2023-08-20T01:15:21;18.00;99.90
10046;DHT22;5063;50.878;4.742;2023-08-20T01:17:48;17.90;99.90
10046;DHT22;5063;50.878;4.742;2023-08-20T01:20:14;17.80;99.90
10046;DHT22;5063;50.878;4.742;2023-08-20T01:28:25;17.70;99.90
10046;DHT22;5063;50.878;4.742;2023-08-20T01:30:51;17.80;99.90
10046;DHT22;5063;50.878;4.742;2023-08-20T01:33:19;18.00;99.90
10046;DHT22;5063;50.878;4.742;2023-08-20T01:35:45;18.10;99.90
10046;DHT22;5063;50.878;4.742;2023-08-20T01:38:11;18.30;99.90
10046;DHT22;5063;50.878;4.742;2023-08-20T01:40:37;18.40;99.90
10046;DHT22;5063;50.878;4.742;2023-08-20T01:43:03;18.50;99.90
10046;DHT22;5063;50.878;4.742;2023-08-20T01:45:28;18.60;99.90
10046;DHT22;5063;50.878;4.742;2023-08-20T01:47:54;18.60;99.90
10046;DHT22;5063;50.878;4.742;2023-08-20T01:50:20;18.70;99.90
10046;DHT22;5063;50.878;4.742;2023-08-20T01:52:46;18.80;99.90
10046;DHT22;5063;50.878;4.742;2023-08-20T01:55:12;18.80;99.90
10046;DHT22;5063;50.878;4.742;2023-08-20T01:57:37;18.80;99.90
10046;DHT22;5063;50.878;4.742;2023-08-20T02:00:04;19.00;99.90
10046;DHT22;5063;50.878;4.742;2023-08-20T02:02:33;19.00;99.90
10046;DHT22;5063;50.878;4.742;2023-08-20T02:05:00;19.10;99.90
10046;DHT22;5063;50.878;4.742;2023-08-20T02:07:26;19.10;99.90
10046;DHT22;5063;50.878;4.742;2023-08-20T02:09:51;19.20;99.90
10046;DHT22;5063;50.878;4.742;2023-08-20T02:12:18;19.20;99.90
10046;DHT22;5063;50.878;4.742;2023-08-20T02:14:43;19.20;99.90
10046;DHT22;5063;50.878;4.742;2023-08-20T02:17:09;19.20;99.90
10046;DHT22;5063;50.878;4.742;2023-08-20T02:19:35;19.30;99.90
10046;DHT22;5063;50.878;4.742;2023-08-20T02:22:01;19.30;99.90
10046;DHT22;5063;50.878;4.742;2023-08-20T02:24:26;19.30;99.90
10046;DHT22;5063;50.878;4.742;2023-08-20T02:26:52;19.30;99.90
10046;DHT22;5063;50.878;4.742;2023-08-20T02:29:19;19.30;99.90
10046;DHT22;5063;50.878;4.742;2023-08-20T02:31:45;19.30;99.90
10046;DHT22;5063;50.878;4.742;2023-08-20T02:34:10;19.30;99.90
10046;DHT22;5063;50.878;4.742;2023-08-20T02:36:36;19.20;99.90
10046;DHT22;5063;50.878;4.742;2023-08-20T02:39:02;19.00;99.90
10046;DHT22;5063;50.878;4.742;2023-08-20T02:41:30;19.00;99.90
10046;DHT22;5063;50.878;4.742;2023-08-20T02:43:56;18.80;99.90
10046;DHT22;5063;50.878;4.742;2023-08-20T02:46:21;18.60;99.90
10046;DHT22;5063;50.878;4.742;2023-08-20T02:48:47;18.50;99.90
10046;DHT22;5063;50.878;4.742;2023-08-20T02:51:13;18.30;99.90
10046;DHT22;5063;50.878;4.742;2023-08-20T02:53:38;18.20;99.90
10046;DHT22;5063;50.878;4.742;2023-08-20T02:56:04;18.00;99.90
10046;DHT22;5063;50.878;4.742;2023-08-20T02:58:30;17.80;99.90
10046;DHT22;5063;50.878;4.742;2023-08-20T03:00:56;17.70;99.90
10046;DHT22;5063;50.878;4.742;2023-08-20T03:03:23;17.60;99.90
10046;DHT22;5063;50.878;4.742;2023-08-20T03:05:49;17.50;99.90
10046;DHT22;5063;50.878;4.742;2023-08-20T03:08:14;17.40;99.90
10046;DHT22;5063;50.878;4.742;2023-08-20T03:10:40;17.20;99.90
10046;DHT22;5063;50.878;4.742;2023-08-20T03:13:06;17.20;99.90
10046;DHT22;5063;50.878;4.742;2023-08-20T03:15:31;17.00;99.90
10046;DHT22;5063;50.878;4.742;2023-08-20T03:17:57;17.00;99.90
10046;DHT22;5063;50.878;4.742;2023-08-20T03:20:23;16.90;99.90
10046;DHT22;5063;50.878;4.742;2023-08-20T03:22:49;16.80;99.90
10046;DHT22;5063;50.878;4.742;2023-08-20T03:25:14;16.80;99.90
10046;DHT22;5063;50.878;4.742;2023-08-20T03:27:41;16.80;99.90
10046;DHT22;5063;50.878;4.742;2023-08-20T03:30:07;16.70;99.90
10046;DHT22;5063;50.878;4.742;2023-08-20T03:32:33;16.70;99.90
10046;DHT22;5063;50.878;4.742;2023-08-20T03:34:58;16.70;99.90
10046;DHT22;5063;50.878;4.742;2023-08-20T03:37:27;16.70;99.90
10046;DHT22;5063;50.878;4.742;2023-08-20T03:39:53;16.70;99.90
10046;DHT22;5063;50.878;4.742;2023-08-20T03:42:19;16.60;99.90
10046;DHT22;5063;50.878;4.742;2023-08-20T03:44:45;16.60;99.90
10046;DHT22;5063;50.878;4.742;2023-08-20T03:47:10;16.50;99.90
10046;DHT22;5063;50.878;4.742;2023-08-20T03:49:37;16.40;99.90
10046;DHT22;5063;50.878;4.742;2023-08-20T03:52:03;16.40;99.90
10046;DHT22;5063;50.878;4.742;2023-08-20T03:54:29;16.40;99.90
10046;DHT22;5063;50.878;4.742;2023-08-20T03:56:55;16.40;99.90
10046;DHT22;5063;50.878;4.742;2023-08-20T03:59:21;16.30;99.90
10046;DHT22;5063;50.878;4.742;2023-08-20T04:01:47;16.30;99.90
10046;DHT22;5063;50.878;4.742;2023-08-20T04:04:12;16.20;99.90
10046;DHT22;5063;50.878;4.742;2023-08-20T04:06:38;16.20;99.90
10046;DHT22;5063;50.878;4.742;2023-08-20T04:09:04;16.20;99.90
10046;DHT22;5063;50.878;4.742;2023-08-20T04:11:31;16.20;99.90
10046;DHT22;5063;50.878;4.742;2023-08-20T04:13:56;16.20;99.90
10046;DHT22;5063;50.878;4.742;2023-08-20T04:16:22;16.20;99.90
10046;DHT22;5063;50.878;4.742;2023-08-20T04:18:48;16.20;99.90
10046;DHT22;5063;50.878;4.742;2023-08-20T04:21:14;16.20;99.90
10046;DHT22;5063;50.878;4.742;2023-08-20T04:23:39;16.10;99.90
10046;DHT22;5063;50.878;4.742;2023-08-20T04:26:07;16.10;99.90
10046;DHT22;5063;50.878;4.742;2023-08-20T04:28:32;16.10;99.90
10046;DHT22;5063;50.878;4.742;2023-08-20T04:30:58;16.00;99.90
10046;DHT22;5063;50.878;4.742;2023-08-20T04:33:26;16.00;99.90
10046;DHT22;5063;50.878;4.742;2023-08-20T04:35:52;16.00;99.90
10046;DHT22;5063;50.878;4.742;2023-08-20T04:38:18;16.00;99.90
10046;DHT22;5063;50.878;4.742;2023-08-20T04:40:47;16.00;99.90
10046;DHT22;5063;50.878;4.742;2023-08-20T04:43:14;16.00;99.90
10046;DHT22;5063;50.878;4.742;2023-08-20T04:45:40;16.00;99.90
10046;DHT22;5063;50.878;4.742;2023-08-20T04:48:06;16.00;99.90
10046;DHT22;5063;50.878;4.742;2023-08-20T04:50:32;16.00;99.90
10046;DHT22;5063;50.878;4.742;2023-08-20T04:52:57;16.10;99.90
10046;DHT22;5063;50.878;4.742;2023-08-20T04:55:30;16.10;99.90
10046;DHT22;5063;50.878;4.742;2023-08-20T04:57:56;16.10;99.90
10046;DHT22;5063;50.878;4.742;2023-08-20T05:00:22;16.10;99.90
10046;DHT22;5063;50.878;4.742;2023-08-20T05:02:48;16.10;99.90
10046;DHT22;5063;50.878;4.742;2023-08-20T05:05:14;16.10;99.90
10046;DHT22;5063;50.878;4.742;2023-08-20T05:07:40;16.10;99.90
10046;DHT22;5063;50.878;4.742;2023-08-20T05:10:07;16.20;99.90
10046;DHT22;5063;50.878;4.742;2023-08-20T05:12:33;16.20;99.90
10046;DHT22;5063;50.878;4.742;2023-08-20T05:14:58;16.30;99.90
10046;DHT22;5063;50.878;4.742;2023-08-20T05:17:24;16.30;99.90
10046;DHT22;5063;50.878;4.742;2023-08-20T05:19:50;16.30;99.90
10046;DHT22;5063;50.878;4.742;2023-08-20T05:22:15;16.40;99.90
10046;DHT22;5063;50.878;4.742;2023-08-20T05:24:41;16.40;99.90
10046;DHT22;5063;50.878;4.742;2023-08-20T05:27:13;16.50;99.90
10046;DHT22;5063;50.878;4.742;2023-08-20T05:29:45;16.50;99.90
10046;DHT22;5063;50.878;4.742;2023-08-20T05:32:11;16.60;99.90
10046;DHT22;5063;50.878;4.742;2023-08-20T05:34:37;16.70;99.90
10046;DHT22;5063;50.878;4.742;2023-08-20T05:37:02;16.70;99.90
10046;DHT22;5063;50.878;4.742;2023-08-20T05:39:30;16.80;99.90
10046;DHT22;5063;50.878;4.742;2023-08-20T05:41:56;16.90;99.90
10046;DHT22;5063;50.878;4.742;2023-08-20T05:44:22;17.00;99.90
10046;DHT22;5063;50.878;4.742;2023-08-20T05:46:48;17.10;99.90
10046;DHT22;5063;50.878;4.742;2023-08-20T05:49:14;17.20;99.90
10046;DHT22;5063;50.878;4.742;2023-08-20T05:51:43;17.30;99.90
10046;DHT22;5063;50.878;4.742;2023-08-20T05:54:09;17.30;99.90
10046;DHT22;5063;50.878;4.742;2023-08-20T05:56:35;17.40;99.90
10046;DHT22;5063;50.878;4.742;2023-08-20T05:59:01;17.50;99.90
10046;DHT22;5063;50.878;4.742;2023-08-20T06:01:26;17.60;99.90
10046;DHT22;5063;50.878;4.742;2023-08-20T06:03:52;17.70;99.90
10046;DHT22;5063;50.878;4.742;2023-08-20T06:06:18;17.80;99.90
10046;DHT22;5063;50.878;4.742;2023-08-20T06:08:43;17.90;99.90
10046;DHT22;5063;50.878;4.742;2023-08-20T06:11:09;18.00;99.90
10046;DHT22;5063;50.878;4.742;2023-08-20T06:13:35;18.10;99.90
10046;DHT22;5063;50.878;4.742;2023-08-20T06:16:00;18.20;99.90
10046;DHT22;5063;50.878;4.742;2023-08-20T06:18:26;18.30;99.90
10046;DHT22;5063;50.878;4.742;2023-08-20T06:20:52;18.50;99.90
10046;DHT22;5063;50.878;4.742;2023-08-20T06:23:17;18.60;99.90
10046;DHT22;5063;50.878;4.742;2023-08-20T06:25:43;19.40;99.90
10046;DHT22;5063;50.878;4.742;2023-08-20T06:28:09;21.60;99.90
10046;DHT22;5063;50.878;4.742;2023-08-20T06:30:35;24.10;99.90
10046;DHT22;5063;50.878;4.742;2023-08-20T06:33:01;26.10;99.90
10046;DHT22;5063;50.878;4.742;2023-08-20T06:35:27;27.60;99.90
10046;DHT22;5063;50.878;4.742;2023-08-20T06:37:52;29.00;99.90
10046;DHT22;5063;50.878;4.742;2023-08-20T06:40:18;30.20;99.90
10046;DHT22;5063;50.878;4.742;2023-08-20T06:42:44;31.10;99.90
10046;DHT22;5063;50.878;4.742;2023-08-20T06:45:10;32.10;99.90
10046;DHT22;5063;50.878;4.742;2023-08-20T06:47:36;32.90;99.90
10046;DHT22;5063;50.878;4.742;2023-08-20T06:50:03;33.50;95.10
10046;DHT22;5063;50.878;4.742;2023-08-20T06:52:29;34.00;94.50
10046;DHT22;5063;50.878;4.742;2023-08-20T06:54:55;34.30;90.80
10046;DHT22;5063;50.878;4.742;2023-08-20T06:57:21;33.30;89.40
10046;DHT22;5063;50.878;4.742;2023-08-20T06:59:46;33.30;90.40
10046;DHT22;5063;50.878;4.742;2023-08-20T07:02:12;33.70;87.70
10046;DHT22;5063;50.878;4.742;2023-08-20T07:04:38;34.40;86.30
10046;DHT22;5063;50.878;4.742;2023-08-20T07:07:04;35.10;83.90
10046;DHT22;5063;50.878;4.742;2023-08-20T07:09:33;35.40;82.40
10046;DHT22;5063;50.878;4.742;2023-08-20T07:11:59;34.90;77.00
10046;DHT22;5063;50.878;4.742;2023-08-20T07:14:25;35.50;77.80
10046;DHT22;5063;50.878;4.742;2023-08-20T07:16:51;35.90;77.20
10046;DHT22;5063;50.878;4.742;2023-08-20T07:19:16;35.60;75.40
10046;DHT22;5063;50.878;4.742;2023-08-20T07:21:42;35.80;73.80
10046;DHT22;5063;50.878;4.742;2023-08-20T07:24:08;35.90;71.90
10046;DHT22;5063;50.878;4.742;2023-08-20T07:26:33;35.80;73.20
10046;DHT22;5063;50.878;4.742;2023-08-20T07:28:59;36.10;73.10
10046;DHT22;5063;50.878;4.742;2023-08-20T07:31:30;36.40;71.80
10046;DHT22;5063;50.878;4.742;2023-08-20T07:33:56;36.60;70.80
10046;DHT22;5063;50.878;4.742;2023-08-20T07:36:25;36.90;71.00
10046;DHT22;5063;50.878;4.742;2023-08-20T07:38:53;37.00;69.70
10046;DHT22;5063;50.878;4.742;2023-08-20T07:41:19;36.90;67.30
10046;DHT22;5063;50.878;4.742;2023-08-20T07:43:46;35.90;65.00
10046;DHT22;5063;50.878;4.742;2023-08-20T07:46:12;36.10;67.50
10046;DHT22;5063;50.878;4.742;2023-08-20T07:48:39;36.50;66.40
10046;DHT22;5063;50.878;4.742;2023-08-20T07:51:05;36.80;65.50
10046;DHT22;5063;50.878;4.742;2023-08-20T07:53:32;36.40;62.20
10046;DHT22;5063;50.878;4.742;2023-08-20T07:56:00;36.80;61.70
10046;DHT22;5063;50.878;4.742;2023-08-20T07:58:25;37.10;61.10
10046;DHT22;5063;50.878;4.742;2023-08-20T08:00:51;36.90;59.80
10046;DHT22;5063;50.878;4.742;2023-08-20T08:03:17;36.30;61.10
10046;DHT22;5063;50.878;4.742;2023-08-20T08:05:47;36.30;61.80
10046;DHT22;5063;50.878;4.742;2023-08-20T08:08:15;35.90;61.40
10046;DHT22;5063;50.878;4.742;2023-08-20T08:10:40;36.30;58.80
10046;DHT22;5063;50.878;4.742;2023-08-20T08:13:06;36.00;59.30
10046;DHT22;5063;50.878;4.742;2023-08-20T08:15:32;35.80;60.80
10046;DHT22;5063;50.878;4.742;2023-08-20T08:17:57;36.20;58.30
10046;DHT22;5063;50.878;4.742;2023-08-20T08:20:23;35.60;59.90
10046;DHT22;5063;50.878;4.742;2023-08-20T08:22:49;36.00;59.30
10046;DHT22;5063;50.878;4.742;2023-08-20T08:25:15;36.00;59.40
10046;DHT22;5063;50.878;4.742;2023-08-20T08:27:40;35.80;59.20
10046;DHT22;5063;50.878;4.742;2023-08-20T08:30:06;35.80;60.30
10046;DHT22;5063;50.878;4.742;2023-08-20T08:32:32;36.00;59.40
10046;DHT22;5063;50.878;4.742;2023-08-20T08:34:58;35.70;60.90
10046;DHT22;5063;50.878;4.742;2023-08-20T08:37:24;35.70;62.70
10046;DHT22;5063;50.878;4.742;2023-08-20T08:39:49;35.90;62.80
10046;DHT22;5063;50.878;4.742;2023-08-20T08:42:16;35.80;61.70
10046;DHT22;5063;50.878;4.742;2023-08-20T08:44:44;35.00;60.50
10046;DHT22;5063;50.878;4.742;2023-08-20T08:47:11;35.10;62.80
10046;DHT22;5063;50.878;4.742;2023-08-20T08:49:37;34.90;61.30
10046;DHT22;5063;50.878;4.742;2023-08-20T08:52:03;35.10;61.20
10046;DHT22;5063;50.878;4.742;2023-08-20T08:54:30;34.90;64.60
10046;DHT22;5063;50.878;4.742;2023-08-20T08:56:57;35.30;64.10
10046;DHT22;5063;50.878;4.742;2023-08-20T08:59:23;35.60;62.90
10046;DHT22;5063;50.878;4.742;2023-08-20T09:01:49;35.60;63.50
10046;DHT22;5063;50.878;4.742;2023-08-20T09:04:15;35.40;63.40
10046;DHT22;5063;50.878;4.742;2023-08-20T09:06:48;35.40;64.30
10046;DHT22;5063;50.878;4.742;2023-08-20T09:09:14;35.80;63.20
10046;DHT22;5063;50.878;4.742;2023-08-20T09:11:40;35.90;61.10
10046;DHT22;5063;50.878;4.742;2023-08-20T09:14:06;35.80;61.40
10046;DHT22;5063;50.878;4.742;2023-08-20T09:16:31;35.70;61.60
10046;DHT22;5063;50.878;4.742;2023-08-20T09:19:00;35.00;60.40
10046;DHT22;5063;50.878;4.742;2023-08-20T09:21:29;34.70;62.80
10046;DHT22;5063;50.878;4.742;2023-08-20T09:23:56;34.90;63.10
10046;DHT22;5063;50.878;4.742;2023-08-20T09:26:23;34.90;61.70
10046;DHT22;5063;50.878;4.742;2023-08-20T09:28:49;35.40;62.20
10046;DHT22;5063;50.878;4.742;2023-08-20T09:31:15;34.80;60.70
10046;DHT22;5063;50.878;4.742;2023-08-20T09:33:59;33.50;61.70
10046;DHT22;5063;50.878;4.742;2023-08-20T09:36:33;31.40;64.30
10046;DHT22;5063;50.878;4.742;2023-08-20T09:38:59;29.80;68.60
10046;DHT22;5063;50.878;4.742;2023-08-20T09:41:26;29.10;71.30
10046;DHT22;5063;50.878;4.742;2023-08-20T09:43:56;28.80;75.30
10046;DHT22;5063;50.878;4.742;2023-08-20T09:46:25;28.20;76.90
10046;DHT22;5063;50.878;4.742;2023-08-20T09:48:57;28.10;77.70
10046;DHT22;5063;50.878;4.742;2023-08-20T09:51:27;27.70;77.90
10046;DHT22;5063;50.878;4.742;2023-08-20T09:54:08;27.40;78.80
10046;DHT22;5063;50.878;4.742;2023-08-20T09:56:38;27.40;82.10
10046;DHT22;5063;50.878;4.742;2023-08-20T09:59:05;27.50;82.70
10046;DHT22;5063;50.878;4.742;2023-08-20T10:01:32;27.50;83.20
10046;DHT22;5063;50.878;4.742;2023-08-20T10:03:58;27.40;80.40
10046;DHT22;5063;50.878;4.742;2023-08-20T10:06:25;27.30;80.30
10046;DHT22;5063;50.878;4.742;2023-08-20T10:08:53;27.30;80.50
10046;DHT22;5063;50.878;4.742;2023-08-20T10:11:19;27.30;80.30
10046;DHT22;5063;50.878;4.742;2023-08-20T10:13:45;27.40;80.40
10046;DHT22;5063;50.878;4.742;2023-08-20T10:16:16;27.40;81.70
10046;DHT22;5063;50.878;4.742;2023-08-20T10:18:45;27.20;83.00
10046;DHT22;5063;50.878;4.742;2023-08-20T10:21:12;27.20;82.70
10046;DHT22;5063;50.878;4.742;2023-08-20T10:23:41;27.10;85.00
10046;DHT22;5063;50.878;4.742;2023-08-20T10:26:10;27.20;88.30
10046;DHT22;5063;50.878;4.742;2023-08-20T10:28:36;27.20;88.10
10046;DHT22;5063;50.878;4.742;2023-08-20T10:31:10;27.20;88.00
10046;DHT22;5063;50.878;4.742;2023-08-20T10:33:50;27.10;86.90
10046;DHT22;5063;50.878;4.742;2023-08-20T10:36:21;27.10;91.00
10046;DHT22;5063;50.878;4.742;2023-08-20T10:38:56;27.10;90.60
10046;DHT22;5063;50.878;4.742;2023-08-20T10:41:27;27.10;91.70
10046;DHT22;5063;50.878;4.742;2023-08-20T10:44:00;27.10;91.20
10046;DHT22;5063;50.878;4.742;2023-08-20T10:46:28;27.20;90.70
10046;DHT22;5063;50.878;4.742;2023-08-20T10:48:57;27.10;91.10
10046;DHT22;5063;50.878;4.742;2023-08-20T10:51:26;27.30;91.10
10046;DHT22;5063;50.878;4.742;2023-08-20T10:56:41;27.20;90.30
10046;DHT22;5063;50.878;4.742;2023-08-20T10:59:08;27.30;90.80
10046;DHT22;5063;50.878;4.742;2023-08-20T11:01:35;27.20;91.70
10046;DHT22;5063;50.878;4.742;2023-08-20T11:04:02;27.30;91.70
10046;DHT22;5063;50.878;4.742;2023-08-20T11:06:32;27.30;93.20
10046;DHT22;5063;50.878;4.742;2023-08-20T11:08:58;27.20;93.30
10046;DHT22;5063;50.878;4.742;2023-08-20T11:11:25;27.20;93.20
10046;DHT22;5063;50.878;4.742;2023-08-20T11:13:51;27.00;93.50
10046;DHT22;5063;50.878;4.742;2023-08-20T11:16:17;27.20;94.50
10046;DHT22;5063;50.878;4.742;2023-08-20T11:18:43;27.10;95.10
10046;DHT22;5063;50.878;4.742;2023-08-20T11:21:09;27.30;96.00
10046;DHT22;5063;50.878;4.742;2023-08-20T11:23:35;27.50;93.90
10046;DHT22;5063;50.878;4.742;2023-08-20T11:26:01;27.60;97.90
10046;DHT22;5063;50.878;4.742;2023-08-20T11:28:28;27.70;96.00
10046;DHT22;5063;50.878;4.742;2023-08-20T11:30:54;27.60;96.00
10046;DHT22;5063;50.878;4.742;2023-08-20T11:33:22;27.70;97.60
10046;DHT22;5063;50.878;4.742;2023-08-20T11:35:48;27.90;96.30
10046;DHT22;5063;50.878;4.742;2023-08-20T11:38:14;27.70;94.40
10046;DHT22;5063;50.878;4.742;2023-08-20T11:40:40;27.70;98.60
10046;DHT22;5063;50.878;4.742;2023-08-20T11:43:05;27.50;96.50
10046;DHT22;5063;50.878;4.742;2023-08-20T11:45:31;27.80;96.70
10046;DHT22;5063;50.878;4.742;2023-08-20T11:48:00;27.80;97.10
10046;DHT22;5063;50.878;4.742;2023-08-20T11:50:26;27.70;96.70
10046;DHT22;5063;50.878;4.742;2023-08-20T11:52:52;27.90;96.70
10046;DHT22;5063;50.878;4.742;2023-08-20T11:55:24;28.00;96.60
10046;DHT22;5063;50.878;4.742;2023-08-20T11:57:53;28.00;95.60
10046;DHT22;5063;50.878;4.742;2023-08-20T12:00:30;28.00;95.70
10046;DHT22;5063;50.878;4.742;2023-08-20T12:02:57;28.10;99.40
10046;DHT22;5063;50.878;4.742;2023-08-20T12:05:27;28.10;95.10
10046;DHT22;5063;50.878;4.742;2023-08-20T12:07:57;28.30;95.80
10046;DHT22;5063;50.878;4.742;2023-08-20T12:10:25;28.60;95.20
10046;DHT22;5063;50.878;4.742;2023-08-20T12:12:51;28.70;93.80
10046;DHT22;5063;50.878;4.742;2023-08-20T12:15:18;28.70;92.60
10046;DHT22;5063;50.878;4.742;2023-08-20T12:18:01;28.60;94.70
10046;DHT22;5063;50.878;4.742;2023-08-20T12:20:29;28.70;93.00
10046;DHT22;5063;50.878;4.742;2023-08-20T12:23:00;29.00;92.40
10046;DHT22;5063;50.878;4.742;2023-08-20T12:25:29;29.10;91.10
10046;DHT22;5063;50.878;4.742;2023-08-20T12:27:55;29.40;90.10
10046;DHT22;5063;50.878;4.742;2023-08-20T12:30:21;29.60;86.10
10046;DHT22;5063;50.878;4.742;2023-08-20T12:32:47;29.70;87.10
10046;DHT22;5063;50.878;4.742;2023-08-20T12:35:13;29.70;85.30
10046;DHT22;5063;50.878;4.742;2023-08-20T12:37:38;29.70;87.20
10046;DHT22;5063;50.878;4.742;2023-08-20T12:40:05;29.60;85.70
10046;DHT22;5063;50.878;4.742;2023-08-20T12:42:37;29.50;87.50
10046;DHT22;5063;50.878;4.742;2023-08-20T12:45:07;29.40;90.50
10046;DHT22;5063;50.878;4.742;2023-08-20T12:47:33;29.60;90.50
10046;DHT22;5063;50.878;4.742;2023-08-20T12:49:59;29.40;87.20
10046;DHT22;5063;50.878;4.742;2023-08-20T12:52:25;29.20;87.40
10046;DHT22;5063;50.878;4.742;2023-08-20T12:54:51;29.10;87.50
10046;DHT22;5063;50.878;4.742;2023-08-20T12:57:16;28.60;89.50
10046;DHT22;5063;50.878;4.742;2023-08-20T12:59:42;28.40;91.70
10046;DHT22;5063;50.878;4.742;2023-08-20T13:02:08;28.40;92.10
10046;DHT22;5063;50.878;4.742;2023-08-20T13:04:34;28.50;92.00
10046;DHT22;5063;50.878;4.742;2023-08-20T13:07:00;28.80;93.50
10046;DHT22;5063;50.878;4.742;2023-08-20T13:09:27;29.20;92.80
10046;DHT22;5063;50.878;4.742;2023-08-20T13:11:53;29.60;92.50
10046;DHT22;5063;50.878;4.742;2023-08-20T13:14:21;29.90;90.00
10046;DHT22;5063;50.878;4.742;2023-08-20T13:16:47;29.90;93.00
10046;DHT22;5063;50.878;4.742;2023-08-20T13:19:13;30.10;90.90
10046;DHT22;5063;50.878;4.742;2023-08-20T13:21:38;30.30;87.90
10046;DHT22;5063;50.878;4.742;2023-08-20T13:24:05;30.30;87.80
10046;DHT22;5063;50.878;4.742;2023-08-20T13:26:30;30.70;85.50
10046;DHT22;5063;50.878;4.742;2023-08-20T13:28:56;31.10;83.60
10046;DHT22;5063;50.878;4.742;2023-08-20T13:31:22;31.10;82.50
10046;DHT22;5063;50.878;4.742;2023-08-20T13:33:47;31.00;84.90
10046;DHT22;5063;50.878;4.742;2023-08-20T13:36:15;30.80;84.70
10046;DHT22;5063;50.878;4.742;2023-08-20T13:38:41;30.90;88.00
10046;DHT22;5063;50.878;4.742;2023-08-20T13:41:07;31.10;84.50
10046;DHT22;5063;50.878;4.742;2023-08-20T13:43:34;31.10;86.00
10046;DHT22;5063;50.878;4.742;2023-08-20T13:45:59;31.20;84.20
10046;DHT22;5063;50.878;4.742;2023-08-20T13:48:25;31.20;84.90
10046;DHT22;5063;50.878;4.742;2023-08-20T13:50:51;31.20;85.30
10046;DHT22;5063;50.878;4.742;2023-08-20T13:53:16;31.00;86.90
10046;DHT22;5063;50.878;4.742;2023-08-20T13:55:42;31.30;85.30
10046;DHT22;5063;50.878;4.742;2023-08-20T13:58:08;31.00;84.00
10046;DHT22;5063;50.878;4.742;2023-08-20T14:00:34;30.80;87.20
10046;DHT22;5063;50.878;4.742;2023-08-20T14:02:59;31.10;84.20
10046;DHT22;5063;50.878;4.742;2023-08-20T14:05:25;30.90;85.70
10046;DHT22;5063;50.878;4.742;2023-08-20T14:07:51;30.90;84.50
10046;DHT22;5063;50.878;4.742;2023-08-20T14:10:16;30.80;84.20
10046;DHT22;5063;50.878;4.742;2023-08-20T14:12:42;30.90;86.20
10046;DHT22;5063;50.878;4.742;2023-08-20T14:15:08;31.30;84.30
10046;DHT22;5063;50.878;4.742;2023-08-20T14:17:34;31.40;82.60
10046;DHT22;5063;50.878;4.742;2023-08-20T14:20:00;31.50;81.70
10046;DHT22;5063;50.878;4.742;2023-08-20T14:22:26;31.50;81.50
10046;DHT22;5063;50.878;4.742;2023-08-20T14:24:51;31.50;82.90
10046;DHT22;5063;50.878;4.742;2023-08-20T14:27:17;31.30;80.90
10046;DHT22;5063;50.878;4.742;2023-08-20T14:29:43;31.10;85.00
10046;DHT22;5063;50.878;4.742;2023-08-20T14:32:09;31.10;88.10
10046;DHT22;5063;50.878;4.742;2023-08-20T14:34:35;31.20;85.00
10046;DHT22;5063;50.878;4.742;2023-08-20T14:37:01;31.20;80.80
10046;DHT22;5063;50.878;4.742;2023-08-20T14:39:26;31.40;84.90
10046;DHT22;5063;50.878;4.742;2023-08-20T14:41:52;31.50;81.20
10046;DHT22;5063;50.878;4.742;2023-08-20T14:44:18;31.30;81.10
10046;DHT22;5063;50.878;4.742;2023-08-20T14:46:43;31.20;82.90
10046;DHT22;5063;50.878;4.742;2023-08-20T14:49:09;31.40;83.30
10046;DHT22;5063;50.878;4.742;2023-08-20T14:51:35;31.60;81.30
10046;DHT22;5063;50.878;4.742;2023-08-20T14:54:00;31.50;81.60
10046;DHT22;5063;50.878;4.742;2023-08-20T14:56:26;31.10;82.40
10046;DHT22;5063;50.878;4.742;2023-08-20T14:58:52;30.90;83.30
10046;DHT22;5063;50.878;4.742;2023-08-20T15:01:18;30.20;84.70
10046;DHT22;5063;50.878;4.742;2023-08-20T15:03:44;30.10;86.70
10046;DHT22;5063;50.878;4.742;2023-08-20T15:06:09;30.20;87.20
10046;DHT22;5063;50.878;4.742;2023-08-20T15:08:35;29.80;89.30
10046;DHT22;5063;50.878;4.742;2023-08-20T15:11:01;30.20;87.20
10046;DHT22;5063;50.878;4.742;2023-08-20T15:13:31;30.40;87.90
10046;DHT22;5063;50.878;4.742;2023-08-20T15:15:57;30.90;85.20
10046;DHT22;5063;50.878;4.742;2023-08-20T15:18:24;30.90;85.60
10046;DHT22;5063;50.878;4.742;2023-08-20T15:20:56;31.10;82.70
10046;DHT22;5063;50.878;4.742;2023-08-20T15:23:26;31.30;82.20
10046;DHT22;5063;50.878;4.742;2023-08-20T15:25:55;31.70;81.50
10046;DHT22;5063;50.878;4.742;2023-08-20T15:28:25;31.90;81.50
10046;DHT22;5063;50.878;4.742;2023-08-20T15:30:51;31.90;79.90
10046;DHT22;5063;50.878;4.742;2023-08-20T15:33:18;32.10;80.30
10046;DHT22;5063;50.878;4.742;2023-08-20T15:35:44;32.00;79.30
10046;DHT22;5063;50.878;4.742;2023-08-20T15:38:10;31.70;81.10
10046;DHT22;5063;50.878;4.742;2023-08-20T15:40:39;31.20;81.60
10046;DHT22;5063;50.878;4.742;2023-08-20T15:43:05;31.00;81.70
10046;DHT22;5063;50.878;4.742;2023-08-20T15:45:31;30.90;82.00
10046;DHT22;5063;50.878;4.742;2023-08-20T15:47:57;30.70;82.50
10046;DHT22;5063;50.878;4.742;2023-08-20T15:50:22;30.50;83.80
10046;DHT22;5063;50.878;4.742;2023-08-20T15:52:48;30.10;84.80
10046;DHT22;5063;50.878;4.742;2023-08-20T15:55:14;29.70;86.00